sensor_id;sensor_type;location;lat;lon;timestamp;temperature;humidity
30825;DHT22;17550;45.486;12.222;2023-05-27T00:01:32;20.70;99.90
30825;DHT22;17550;45.486;12.222;2023-05-27T00:03:58;20.40;99.90
30825;DHT22;17550;45.486;12.222;2023-05-27T00:06:23;20.10;99.90
30825;DHT22;17550;45.486;12.222;2023-05-27T00:08:49;20.00;99.90
30825;DHT22;17550;45.486;12.222;2023-05-27T00:11:14;19.80;99.90
30825;DHT22;17550;45.486;12.222;2023-05-27T00:13:40;19.60;99.90
30825;DHT22;17550;45.486;12.222;2023-05-27T00:16:06;19.50;99.90
30825;DHT22;17550;45.486;12.222;2023-05-27T00:18:32;19.40;99.90
30825;DHT22;17550;45.486;12.222;2023-05-27T00:20:59;19.40;99.90
30825;DHT22;17550;45.486;12.222;2023-05-27T00:23:24;19.30;99.90
30825;DHT22;17550;45.486;12.222;2023-05-27T00:25:50;19.20;99.90
30825;DHT22;17550;45.486;12.222;2023-05-27T00:28:16;19.20;99.90
30825;DHT22;17550;45.486;12.222;2023-05-27T00:30:41;19.10;99.90
30825;DHT22;17550;45.486;12.222;2023-05-27T00:33:07;19.00;99.90
30825;DHT22;17550;45.486;12.222;2023-05-27T00:35:33;19.00;99.90
30825;DHT22;17550;45.486;12.222;2023-05-27T00:37:58;19.00;99.90
30825;DHT22;17550;45.486;12.222;2023-05-27T00:40:26;19.10;99.90
30825;DHT22;17550;45.486;12.222;2023-05-27T00:42:54;19.30;99.90
30825;DHT22;17550;45.486;12.222;2023-05-27T00:45:20;19.30;99.90
30825;DHT22;17550;45.486;12.222;2023-05-27T00:47:46;19.40;99.90
30825;DHT22;17550;45.486;12.222;2023-05-27T00:50:11;19.40;99.90
30825;DHT22;17550;45.486;12.222;2023-05-27T00:52:37;19.30;99.90
30825;DHT22;17550;45.486;12.222;2023-05-27T00:55:03;19.40;99.90
30825;DHT22;17550;45.486;12.222;2023-05-27T00:57:29;19.40;99.90
30825;DHT22;17550;45.486;12.222;2023-05-27T00:59:55;19.40;99.90
30825;DHT22;17550;45.486;12.222;2023-05-27T01:02:21;19.30;99.90
30825;DHT22;17550;45.486;12.222;2023-05-27T01:04:48;19.30;99.90
30825;DHT22;17550;45.486;12.222;2023-05-27T01:07:29;19.20;99.90
30825;DHT22;17550;45.486;12.222;2023-05-27T01:13:40;19.10;99.90
30825;DHT22;17550;45.486;12.222;2023-05-27T01:16:11;19.00;99.90
30825;DHT22;17550;45.486;12.222;2023-05-27T01:18:37;19.00;99.90
30825;DHT22;17550;45.486;12.222;2023-05-27T01:21:09;19.00;99.90
30825;DHT22;17550;45.486;12.222;2023-05-27T01:23:35;19.00;99.90
30825;DHT22;17550;45.486;12.222;2023-05-27T01:26:04;19.00;99.90
30825;DHT22;17550;45.486;12.222;2023-05-27T01:28:30;19.10;99.90
30825;DHT22;17550;45.486;12.222;2023-05-27T01:31:15;19.10;99.90
30825;DHT22;17550;45.486;12.222;2023-05-27T01:33:48;19.10;99.90
30825;DHT22;17550;45.486;12.222;2023-05-27T01:36:18;18.90;99.90
30825;DHT22;17550;45.486;12.222;2023-05-27T01:38:47;18.90;99.90
30825;DHT22;17550;45.486;12.222;2023-05-27T01:41:14;18.80;99.90
30825;DHT22;17550;45.486;12.222;2023-05-27T01:43:41;18.80;99.90
30825;DHT22;17550;45.486;12.222;2023-05-27T01:46:08;18.60;99.90
30825;DHT22;17550;45.486;12.222;2023-05-27T01:48:34;18.50;99.90
30825;DHT22;17550;45.486;12.222;2023-05-27T01:51:00;18.50;99.90
30825;DHT22;17550;45.486;12.222;2023-05-27T01:53:25;18.50;99.90
30825;DHT22;17550;45.486;12.222;2023-05-27T01:55:51;18.50;99.90
30825;DHT22;17550;45.486;12.222;2023-05-27T01:58:17;18.50;99.90
30825;DHT22;17550;45.486;12.222;2023-05-27T02:00:42;18.50;99.90
30825;DHT22;17550;45.486;12.222;2023-05-27T02:03:08;18.50;99.90
30825;DHT22;17550;45.486;12.222;2023-05-27T02:05:34;18.50;99.90
30825;DHT22;17550;45.486;12.222;2023-05-27T02:08:01;18.50;99.90
30825;DHT22;17550;45.486;12.222;2023-05-27T02:10:28;18.50;99.90
30825;DHT22;17550;45.486;12.222;2023-05-27T02:12:53;18.50;99.90
30825;DHT22;17550;45.486;12.222;2023-05-27T02:15:19;18.50;99.90
30825;DHT22;17550;45.486;12.222;2023-05-27T02:17:49;18.50;99.90
30825;DHT22;17550;45.486;12.222;2023-05-27T02:20:21;18.50;99.90
30825;DHT22;17550;45.486;12.222;2023-05-27T02:22:48;18.50;99.90
30825;DHT22;17550;45.486;12.222;2023-05-27T02:25:14;18.40;99.90
30825;DHT22;17550;45.486;12.222;2023-05-27T02:27:40;18.40;99.90
30825;DHT22;17550;45.486;12.222;2023-05-27T02:30:07;18.40;99.90
30825;DHT22;17550;45.486;12.222;2023-05-27T02:32:33;18.40;99.90
30825;DHT22;17550;45.486;12.222;2023-05-27T02:34:59;18.30;99.90
30825;DHT22;17550;45.486;12.222;2023-05-27T02:37:25;18.30;99.90
30825;DHT22;17550;45.486;12.222;2023-05-27T02:39:53;18.20;99.90
30825;DHT22;17550;45.486;12.222;2023-05-27T02:42:18;18.20;99.90
30825;DHT22;17550;45.486;12.222;2023-05-27T02:44:44;18.20;99.90
30825;DHT22;17550;45.486;12.222;2023-05-27T02:47:10;18.30;99.90
30825;DHT22;17550;45.486;12.222;2023-05-27T02:49:36;18.30;99.90
30825;DHT22;17550;45.486;12.222;2023-05-27T02:52:03;18.30;99.90
30825;DHT22;17550;45.486;12.222;2023-05-27T02:54:29;18.30;99.90
30825;DHT22;17550;45.486;12.222;2023-05-27T02:56:55;18.30;99.90
30825;DHT22;17550;45.486;12.222;2023-05-27T02:59:20;18.30;99.90
30825;DHT22;17550;45.486;12.222;2023-05-27T03:01:46;18.40;99.90
30825;DHT22;17550;45.486;12.222;2023-05-27T03:04:12;18.30;99.90
30825;DHT22;17550;45.486;12.222;2023-05-27T03:06:37;18.20;99.90
30825;DHT22;17550;45.486;12.222;2023-05-27T03:09:04;18.20;99.90
30825;DHT22;17550;45.486;12.222;2023-05-27T03:11:29;18.30;99.90
30825;DHT22;17550;45.486;12.222;2023-05-27T03:13:55;18.20;99.90
30825;DHT22;17550;45.486;12.222;2023-05-27T03:16:21;18.30;99.90
30825;DHT22;17550;45.486;12.222;2023-05-27T03:18:48;18.40;99.90
30825;DHT22;17550;45.486;12.222;2023-05-27T03:21:14;18.40;99.90
30825;DHT22;17550;45.486;12.222;2023-05-27T03:23:39;18.40;99.90
30825;DHT22;17550;45.486;12.222;2023-05-27T03:26:05;18.40;99.90
30825;DHT22;17550;45.486;12.222;2023-05-27T03:28:31;18.40;99.90
30825;DHT22;17550;45.486;12.222;2023-05-27T03:30:57;18.40;99.90
30825;DHT22;17550;45.486;12.222;2023-05-27T03:33:23;18.30;99.90
30825;DHT22;17550;45.486;12.222;2023-05-27T03:35:49;18.30;99.90
30825;DHT22;17550;45.486;12.222;2023-05-27T03:38:15;18.40;99.90
30825;DHT22;17550;45.486;12.222;2023-05-27T03:40:41;18.40;99.90
30825;DHT22;17550;45.486;12.222;2023-05-27T03:43:06;18.40;99.90
30825;DHT22;17550;45.486;12.222;2023-05-27T03:45:32;18.40;99.90
30825;DHT22;17550;45.486;12.222;2023-05-27T03:47:58;18.50;99.90
30825;DHT22;17550;45.486;12.222;2023-05-27T03:50:23;18.60;99.90
30825;DHT22;17550;45.486;12.222;2023-05-27T03:52:49;18.60;99.90
30825;DHT22;17550;45.486;12.222;2023-05-27T03:55:15;18.60;99.90
30825;DHT22;17550;45.486;12.222;2023-05-27T03:57:42;18.60;99.90
30825;DHT22;17550;45.486;12.222;2023-05-27T04:00:08;18.60;99.90
30825;DHT22;17550;45.486;12.222;2023-05-27T04:02:37;18.60;99.90
30825;DHT22;17550;45.486;12.222;2023-05-27T04:05:03;18.60;99.90
30825;DHT22;17550;45.486;12.222;2023-05-27T04:07:29;18.60;99.90
30825;DHT22;17550;45.486;12.222;2023-05-27T04:09:55;18.60;99.90
30825;DHT22;17550;45.486;12.222;2023-05-27T04:12:20;18.60;99.90
30825;DHT22;17550;45.486;12.222;2023-05-27T04:14:46;18.60;99.90
30825;DHT22;17550;45.486;12.222;2023-05-27T04:17:12;18.70;99.90
30825;DHT22;17550;45.486;12.222;2023-05-27T04:19:39;18.80;99.90
30825;DHT22;17550;45.486;12.222;2023-05-27T04:22:05;18.90;99.90
30825;DHT22;17550;45.486;12.222;2023-05-27T04:24:30;19.00;99.90
30825;DHT22;17550;45.486;12.222;2023-05-27T04:26:56;19.30;99.90
30825;DHT22;17550;45.486;12.222;2023-05-27T04:29:22;19.80;99.90
30825;DHT22;17550;45.486;12.222;2023-05-27T04:31:50;20.10;99.90
30825;DHT22;17550;45.486;12.222;2023-05-27T04:34:16;20.20;99.90
30825;DHT22;17550;45.486;12.222;2023-05-27T04:36:42;20.10;99.90
30825;DHT22;17550;45.486;12.222;2023-05-27T04:39:09;20.30;99.90
30825;DHT22;17550;45.486;12.222;2023-05-27T04:41:36;20.90;99.90
30825;DHT22;17550;45.486;12.222;2023-05-27T04:44:05;21.20;99.90
30825;DHT22;17550;45.486;12.222;2023-05-27T04:46:30;21.60;99.90
30825;DHT22;17550;45.486;12.222;2023-05-27T04:48:56;22.30;99.90
30825;DHT22;17550;45.486;12.222;2023-05-27T04:51:22;22.60;99.90
30825;DHT22;17550;45.486;12.222;2023-05-27T04:53:48;22.40;99.90
30825;DHT22;17550;45.486;12.222;2023-05-27T04:56:15;22.00;99.90
30825;DHT22;17550;45.486;12.222;2023-05-27T04:58:45;21.80;99.90
30825;DHT22;17550;45.486;12.222;2023-05-27T05:01:14;21.60;99.90
30825;DHT22;17550;45.486;12.222;2023-05-27T05:03:46;21.50;99.90
30825;DHT22;17550;45.486;12.222;2023-05-27T05:06:28;21.20;99.90
30825;DHT22;17550;45.486;12.222;2023-05-27T05:08:54;21.10;99.90
30825;DHT22;17550;45.486;12.222;2023-05-27T05:11:20;21.20;99.90
30825;DHT22;17550;45.486;12.222;2023-05-27T05:13:46;21.20;99.90
30825;DHT22;17550;45.486;12.222;2023-05-27T05:16:12;21.20;99.90
30825;DHT22;17550;45.486;12.222;2023-05-27T05:18:38;21.00;99.90
30825;DHT22;17550;45.486;12.222;2023-05-27T05:21:03;21.00;99.90
30825;DHT22;17550;45.486;12.222;2023-05-27T05:23:30;20.90;99.90
30825;DHT22;17550;45.486;12.222;2023-05-27T05:25:56;20.90;99.90
30825;DHT22;17550;45.486;12.222;2023-05-27T05:28:24;21.00;99.90
30825;DHT22;17550;45.486;12.222;2023-05-27T05:30:49;21.10;99.90
30825;DHT22;17550;45.486;12.222;2023-05-27T05:33:15;21.30;99.90
30825;DHT22;17550;45.486;12.222;2023-05-27T05:35:41;21.40;99.90
30825;DHT22;17550;45.486;12.222;2023-05-27T05:38:06;21.50;99.90
30825;DHT22;17550;45.486;12.222;2023-05-27T05:40:32;21.60;99.90
30825;DHT22;17550;45.486;12.222;2023-05-27T05:42:58;21.80;99.90
30825;DHT22;17550;45.486;12.222;2023-05-27T05:45:23;21.80;99.90
30825;DHT22;17550;45.486;12.222;2023-05-27T05:47:50;22.00;99.90
30825;DHT22;17550;45.486;12.222;2023-05-27T05:50:16;22.30;99.90
30825;DHT22;17550;45.486;12.222;2023-05-27T05:52:42;22.50;99.90
30825;DHT22;17550;45.486;12.222;2023-05-27T05:55:08;22.60;99.90
30825;DHT22;17550;45.486;12.222;2023-05-27T05:57:34;22.80;99.90
30825;DHT22;17550;45.486;12.222;2023-05-27T05:59:59;23.10;99.90
30825;DHT22;17550;45.486;12.222;2023-05-27T06:02:25;23.20;99.90
30825;DHT22;17550;45.486;12.222;2023-05-27T06:04:52;23.50;99.90
30825;DHT22;17550;45.486;12.222;2023-05-27T06:07:19;23.80;99.90
30825;DHT22;17550;45.486;12.222;2023-05-27T06:09:45;23.80;99.90
30825;DHT22;17550;45.486;12.222;2023-05-27T06:12:11;24.00;99.90
30825;DHT22;17550;45.486;12.222;2023-05-27T06:14:37;24.20;99.90
30825;DHT22;17550;45.486;12.222;2023-05-27T06:17:03;24.40;99.90
30825;DHT22;17550;45.486;12.222;2023-05-27T06:19:29;24.20;99.90
30825;DHT22;17550;45.486;12.222;2023-05-27T06:21:55;24.20;99.90
30825;DHT22;17550;45.486;12.222;2023-05-27T06:24:20;24.10;99.90
30825;DHT22;17550;45.486;12.222;2023-05-27T06:26:46;24.10;99.90
30825;DHT22;17550;45.486;12.222;2023-05-27T06:29:12;24.10;99.90
30825;DHT22;17550;45.486;12.222;2023-05-27T06:31:37;24.20;99.90
30825;DHT22;17550;45.486;12.222;2023-05-27T06:34:03;24.30;99.90
30825;DHT22;17550;45.486;12.222;2023-05-27T06:36:29;24.20;99.90
30825;DHT22;17550;45.486;12.222;2023-05-27T06:38:55;24.30;99.90
30825;DHT22;17550;45.486;12.222;2023-05-27T06:41:21;24.60;99.90
30825;DHT22;17550;45.486;12.222;2023-05-27T06:43:47;24.70;99.00
30825;DHT22;17550;45.486;12.222;2023-05-27T06:46:12;24.70;98.70
30825;DHT22;17550;45.486;12.222;2023-05-27T06:48:38;25.00;98.80
30825;DHT22;17550;45.486;12.222;2023-05-27T06:51:05;25.30;98.30
30825;DHT22;17550;45.486;12.222;2023-05-27T06:53:31;25.40;98.30
30825;DHT22;17550;45.486;12.222;2023-05-27T06:55:57;25.70;98.30
30825;DHT22;17550;45.486;12.222;2023-05-27T06:58:23;25.80;97.60
30825;DHT22;17550;45.486;12.222;2023-05-27T07:00:48;26.00;97.40
30825;DHT22;17550;45.486;12.222;2023-05-27T07:03:14;26.10;96.90
30825;DHT22;17550;45.486;12.222;2023-05-27T07:05:40;26.10;95.70
30825;DHT22;17550;45.486;12.222;2023-05-27T07:08:06;25.70;95.10
30825;DHT22;17550;45.486;12.222;2023-05-27T07:10:32;25.30;95.80
30825;DHT22;17550;45.486;12.222;2023-05-27T07:12:58;25.20;96.30
30825;DHT22;17550;45.486;12.222;2023-05-27T07:15:25;25.20;96.70
30825;DHT22;17550;45.486;12.222;2023-05-27T07:17:52;25.30;96.50
30825;DHT22;17550;45.486;12.222;2023-05-27T07:20:18;25.30;95.40
30825;DHT22;17550;45.486;12.222;2023-05-27T07:22:44;25.40;95.30
30825;DHT22;17550;45.486;12.222;2023-05-27T07:25:09;25.30;94.50
30825;DHT22;17550;45.486;12.222;2023-05-27T07:27:35;25.30;94.40
30825;DHT22;17550;45.486;12.222;2023-05-27T07:30:01;25.40;95.00
30825;DHT22;17550;45.486;12.222;2023-05-27T07:32:27;25.60;94.20
30825;DHT22;17550;45.486;12.222;2023-05-27T07:34:53;25.50;93.60
30825;DHT22;17550;45.486;12.222;2023-05-27T07:37:19;25.00;93.80
30825;DHT22;17550;45.486;12.222;2023-05-27T07:39:45;25.00;94.50
30825;DHT22;17550;45.486;12.222;2023-05-27T07:42:10;25.10;94.50
30825;DHT22;17550;45.486;12.222;2023-05-27T07:44:36;25.40;94.60
30825;DHT22;17550;45.486;12.222;2023-05-27T07:47:02;25.60;94.40
30825;DHT22;17550;45.486;12.222;2023-05-27T07:49:28;25.30;93.90
30825;DHT22;17550;45.486;12.222;2023-05-27T07:51:53;25.00;94.80
30825;DHT22;17550;45.486;12.222;2023-05-27T07:54:20;24.80;94.70
30825;DHT22;17550;45.486;12.222;2023-05-27T07:56:45;24.80;95.70
30825;DHT22;17550;45.486;12.222;2023-05-27T07:59:11;24.70;95.20
30825;DHT22;17550;45.486;12.222;2023-05-27T08:01:37;24.60;95.20
30825;DHT22;17550;45.486;12.222;2023-05-27T08:04:02;24.60;95.60
30825;DHT22;17550;45.486;12.222;2023-05-27T08:06:28;24.70;96.30
30825;DHT22;17550;45.486;12.222;2023-05-27T08:08:54;24.80;95.70
30825;DHT22;17550;45.486;12.222;2023-05-27T08:11:19;25.00;95.00
30825;DHT22;17550;45.486;12.222;2023-05-27T08:13:45;25.00;94.10
30825;DHT22;17550;45.486;12.222;2023-05-27T08:16:11;25.00;94.50
30825;DHT22;17550;45.486;12.222;2023-05-27T08:18:37;25.20;93.50
30825;DHT22;17550;45.486;12.222;2023-05-27T08:21:02;25.10;94.10
30825;DHT22;17550;45.486;12.222;2023-05-27T08:23:28;25.10;94.30
30825;DHT22;17550;45.486;12.222;2023-05-27T08:25:54;25.00;94.60
30825;DHT22;17550;45.486;12.222;2023-05-27T08:28:20;24.80;94.60
30825;DHT22;17550;45.486;12.222;2023-05-27T08:30:46;24.80;95.40
30825;DHT22;17550;45.486;12.222;2023-05-27T08:33:12;24.80;94.80
30825;DHT22;17550;45.486;12.222;2023-05-27T08:35:41;25.10;94.60
30825;DHT22;17550;45.486;12.222;2023-05-27T08:38:07;25.10;94.10
30825;DHT22;17550;45.486;12.222;2023-05-27T08:40:32;25.10;94.30
30825;DHT22;17550;45.486;12.222;2023-05-27T08:42:58;25.30;94.30
30825;DHT22;17550;45.486;12.222;2023-05-27T08:45:24;25.30;94.10
30825;DHT22;17550;45.486;12.222;2023-05-27T08:47:50;25.30;93.30
30825;DHT22;17550;45.486;12.222;2023-05-27T08:50:15;25.40;93.30
30825;DHT22;17550;45.486;12.222;2023-05-27T08:52:52;25.40;94.00
30825;DHT22;17550;45.486;12.222;2023-05-27T08:55:20;25.30;94.70
30825;DHT22;17550;45.486;12.222;2023-05-27T08:57:55;25.30;94.30
30825;DHT22;17550;45.486;12.222;2023-05-27T09:00:21;25.40;94.50
30825;DHT22;17550;45.486;12.222;2023-05-27T09:02:47;25.40;93.80
30825;DHT22;17550;45.486;12.222;2023-05-27T09:05:14;25.70;93.60
30825;DHT22;17550;45.486;12.222;2023-05-27T09:07:41;25.60;93.20
30825;DHT22;17550;45.486;12.222;2023-05-27T09:10:08;25.90;93.70
30825;DHT22;17550;45.486;12.222;2023-05-27T09:12:34;26.10;93.30
30825;DHT22;17550;45.486;12.222;2023-05-27T09:15:00;26.40;93.00
30825;DHT22;17550;45.486;12.222;2023-05-27T09:17:26;26.30;92.20
30825;DHT22;17550;45.486;12.222;2023-05-27T09:19:54;26.00;92.00
30825;DHT22;17550;45.486;12.222;2023-05-27T09:22:30;25.90;92.50
30825;DHT22;17550;45.486;12.222;2023-05-27T09:24:56;25.80;92.10
30825;DHT22;17550;45.486;12.222;2023-05-27T09:27:27;26.10;92.60
30825;DHT22;17550;45.486;12.222;2023-05-27T09:29:53;26.30;92.40
30825;DHT22;17550;45.486;12.222;2023-05-27T09:32:26;26.30;92.80
30825;DHT22;17550;45.486;12.222;2023-05-27T09:34:56;26.00;92.60
30825;DHT22;17550;45.486;12.222;2023-05-27T09:37:29;26.00;92.40
30825;DHT22;17550;45.486;12.222;2023-05-27T09:40:03;25.90;91.80
30825;DHT22;17550;45.486;12.222;2023-05-27T09:42:50;25.90;91.50
30825;DHT22;17550;45.486;12.222;2023-05-27T09:45:17;25.90;92.00
30825;DHT22;17550;45.486;12.222;2023-05-27T09:47:50;26.30;91.80
30825;DHT22;17550;45.486;12.222;2023-05-27T09:50:17;26.50;91.90
30825;DHT22;17550;45.486;12.222;2023-05-27T09:52:44;26.60;91.90
30825;DHT22;17550;45.486;12.222;2023-05-27T09:55:11;26.40;91.40
30825;DHT22;17550;45.486;12.222;2023-05-27T09:57:39;26.50;91.60
30825;DHT22;17550;45.486;12.222;2023-05-27T10:00:06;26.70;92.00
30825;DHT22;17550;45.486;12.222;2023-05-27T10:02:45;26.90;91.30
30825;DHT22;17550;45.486;12.222;2023-05-27T10:05:15;27.00;91.70
30825;DHT22;17550;45.486;12.222;2023-05-27T10:07:43;26.60;90.30
30825;DHT22;17550;45.486;12.222;2023-05-27T10:10:16;26.40;90.40
30825;DHT22;17550;45.486;12.222;2023-05-27T10:12:44;26.10;91.20
30825;DHT22;17550;45.486;12.222;2023-05-27T10:15:21;26.10;91.20
30825;DHT22;17550;45.486;12.222;2023-05-27T10:17:49;26.30;90.90
30825;DHT22;17550;45.486;12.222;2023-05-27T10:20:34;26.60;91.00
30825;DHT22;17550;45.486;12.222;2023-05-27T10:23:17;26.70;90.30
30825;DHT22;17550;45.486;12.222;2023-05-27T10:28:26;27.00;89.90
30825;DHT22;17550;45.486;12.222;2023-05-27T10:30:52;27.00;89.40
30825;DHT22;17550;45.486;12.222;2023-05-27T10:33:33;27.30;88.20
30825;DHT22;17550;45.486;12.222;2023-05-27T10:36:13;27.50;87.30
30825;DHT22;17550;45.486;12.222;2023-05-27T10:38:40;27.40;86.60
30825;DHT22;17550;45.486;12.222;2023-05-27T10:41:07;27.40;87.50
30825;DHT22;17550;45.486;12.222;2023-05-27T10:43:33;27.20;87.50
30825;DHT22;17550;45.486;12.222;2023-05-27T10:46:03;27.10;89.00
30825;DHT22;17550;45.486;12.222;2023-05-27T10:48:31;27.00;88.60
30825;DHT22;17550;45.486;12.222;2023-05-27T10:50:57;27.20;89.30
30825;DHT22;17550;45.486;12.222;2023-05-27T10:53:26;27.40;88.80
30825;DHT22;17550;45.486;12.222;2023-05-27T10:55:51;27.70;87.90
30825;DHT22;17550;45.486;12.222;2023-05-27T10:58:18;27.80;85.80
30825;DHT22;17550;45.486;12.222;2023-05-27T11:00:45;27.90;87.20
30825;DHT22;17550;45.486;12.222;2023-05-27T11:03:26;28.00;85.40
30825;DHT22;17550;45.486;12.222;2023-05-27T11:06:05;27.90;85.10
30825;DHT22;17550;45.486;12.222;2023-05-27T11:08:35;27.70;85.20
30825;DHT22;17550;45.486;12.222;2023-05-27T11:11:02;27.50;85.90
30825;DHT22;17550;45.486;12.222;2023-05-27T11:13:45;27.60;86.50
30825;DHT22;17550;45.486;12.222;2023-05-27T11:16:12;27.60;86.70
30825;DHT22;17550;45.486;12.222;2023-05-27T11:18:40;27.70;86.80
30825;DHT22;17550;45.486;12.222;2023-05-27T11:21:08;27.90;85.50
30825;DHT22;17550;45.486;12.222;2023-05-27T11:23:38;27.90;85.30
30825;DHT22;17550;45.486;12.222;2023-05-27T11:28:55;28.10;86.40
30825;DHT22;17550;45.486;12.222;2023-05-27T11:31:27;28.40;86.00
30825;DHT22;17550;45.486;12.222;2023-05-27T11:33:53;28.60;85.30
30825;DHT22;17550;45.486;12.222;2023-05-27T11:36:20;28.70;85.40
30825;DHT22;17550;45.486;12.222;2023-05-27T11:38:58;28.80;83.10
30825;DHT22;17550;45.486;12.222;2023-05-27T11:41:28;28.90;82.40
30825;DHT22;17550;45.486;12.222;2023-05-27T11:44:05;29.00;82.60
30825;DHT22;17550;45.486;12.222;2023-05-27T11:47:00;28.90;82.80
30825;DHT22;17550;45.486;12.222;2023-05-27T11:49:27;28.70;83.10
30825;DHT22;17550;45.486;12.222;2023-05-27T11:51:55;28.50;83.90
30825;DHT22;17550;45.486;12.222;2023-05-27T11:54:27;28.50;83.80
30825;DHT22;17550;45.486;12.222;2023-05-27T11:56:54;28.40;84.10
30825;DHT22;17550;45.486;12.222;2023-05-27T11:59:21;28.40;84.90
30825;DHT22;17550;45.486;12.222;2023-05-27T12:01:47;28.70;84.60
30825;DHT22;17550;45.486;12.222;2023-05-27T12:04:13;29.00;83.90
30825;DHT22;17550;45.486;12.222;2023-05-27T12:06:39;29.30;83.00
30825;DHT22;17550;45.486;12.222;2023-05-27T12:09:06;29.40;82.90
30825;DHT22;17550;45.486;12.222;2023-05-27T12:11:33;29.30;84.40
30825;DHT22;17550;45.486;12.222;2023-05-27T12:13:59;29.30;84.40
30825;DHT22;17550;45.486;12.222;2023-05-27T12:16:25;29.40;83.20
30825;DHT22;17550;45.486;12.222;2023-05-27T12:18:51;29.50;83.50
30825;DHT22;17550;45.486;12.222;2023-05-27T12:21:17;29.50;82.30
30825;DHT22;17550;45.486;12.222;2023-05-27T12:23:44;29.40;82.70
30825;DHT22;17550;45.486;12.222;2023-05-27T12:26:12;29.30;83.60
30825;DHT22;17550;45.486;12.222;2023-05-27T12:28:38;29.10;83.10
30825;DHT22;17550;45.486;12.222;2023-05-27T12:31:04;29.10;83.20
30825;DHT22;17550;45.486;12.222;2023-05-27T12:33:30;29.00;83.10
30825;DHT22;17550;45.486;12.222;2023-05-27T12:35:59;29.00;83.00
30825;DHT22;17550;45.486;12.222;2023-05-27T12:38:25;29.10;82.20
30825;DHT22;17550;45.486;12.222;2023-05-27T12:40:52;29.10;82.10
30825;DHT22;17550;45.486;12.222;2023-05-27T12:43:18;28.90;81.70
30825;DHT22;17550;45.486;12.222;2023-05-27T12:45:44;28.70;82.10
30825;DHT22;17550;45.486;12.222;2023-05-27T12:48:13;28.50;83.20
30825;DHT22;17550;45.486;12.222;2023-05-27T12:50:39;28.50;83.00
30825;DHT22;17550;45.486;12.222;2023-05-27T12:53:07;28.40;83.20
30825;DHT22;17550;45.486;12.222;2023-05-27T12:55:34;28.30;85.20
30825;DHT22;17550;45.486;12.222;2023-05-27T12:58:00;28.20;84.80
30825;DHT22;17550;45.486;12.222;2023-05-27T13:00:26;28.40;85.60
30825;DHT22;17550;45.486;12.222;2023-05-27T13:02:51;28.60;84.90
30825;DHT22;17550;45.486;12.222;2023-05-27T13:05:17;28.80;83.80
30825;DHT22;17550;45.486;12.222;2023-05-27T13:08:12;28.80;83.40
30825;DHT22;17550;45.486;12.222;2023-05-27T13:10:38;28.70;84.00
30825;DHT22;17550;45.486;12.222;2023-05-27T13:13:04;28.40;83.30
30825;DHT22;17550;45.486;12.222;2023-05-27T13:15:30;28.20;84.80
30825;DHT22;17550;45.486;12.222;2023-05-27T13:17:56;28.20;84.40
30825;DHT22;17550;45.486;12.222;2023-05-27T13:20:25;28.30;83.60
30825;DHT22;17550;45.486;12.222;2023-05-27T13:22:51;28.50;84.70
30825;DHT22;17550;45.486;12.222;2023-05-27T13:25:18;28.60;84.80
30825;DHT22;17550;45.486;12.222;2023-05-27T13:27:45;28.80;83.60
30825;DHT22;17550;45.486;12.222;2023-05-27T13:30:15;29.00;82.80
30825;DHT22;17550;45.486;12.222;2023-05-27T13:32:41;29.20;82.00
30825;DHT22;17550;45.486;12.222;2023-05-27T13:35:09;28.80;81.50
30825;DHT22;17550;45.486;12.222;2023-05-27T13:37:36;28.80;82.40
30825;DHT22;17550;45.486;12.222;2023-05-27T13:40:03;28.90;83.50
30825;DHT22;17550;45.486;12.222;2023-05-27T13:42:28;29.00;83.70
30825;DHT22;17550;45.486;12.222;2023-05-27T13:44:58;29.10;83.80
30825;DHT22;17550;45.486;12.222;2023-05-27T13:47:23;29.20;82.60
30825;DHT22;17550;45.486;12.222;2023-05-27T13:49:49;29.30;82.50
30825;DHT22;17550;45.486;12.222;2023-05-27T13:52:15;29.20;82.80
30825;DHT22;17550;45.486;12.222;2023-05-27T13:54:41;29.10;81.90
30825;DHT22;17550;45.486;12.222;2023-05-27T13:57:07;29.20;82.00
30825;DHT22;17550;45.486;12.222;2023-05-27T13:59:33;29.20;81.00
30825;DHT22;17550;45.486;12.222;2023-05-27T14:01:58;29.10;80.90
30825;DHT22;17550;45.486;12.222;2023-05-27T14:04:24;28.80;79.90
30825;DHT22;17550;45.486;12.222;2023-05-27T14:06:50;28.80;80.00
30825;DHT22;17550;45.486;12.222;2023-05-27T14:09:16;28.80;79.60
30825;DHT22;17550;45.486;12.222;2023-05-27T14:11:41;28.50;80.00
30825;DHT22;17550;45.486;12.222;2023-05-27T14:14:07;28.40;80.70
30825;DHT22;17550;45.486;12.222;2023-05-27T14:16:32;28.40;81.10
30825;DHT22;17550;45.486;12.222;2023-05-27T14:18:58;28.60;80.20
30825;DHT22;17550;45.486;12.222;2023-05-27T14:21:24;28.80;80.90
30825;DHT22;17550;45.486;12.222;2023-05-27T14:23:50;29.10;80.00
30825;DHT22;17550;45.486;12.222;2023-05-27T14:26:15;29.30;79.20
30825;DHT22;17550;45.486;12.222;2023-05-27T14:28:41;29.60;78.80
30825;DHT22;17550;45.486;12.222;2023-05-27T14:31:07;29.80;77.00
30825;DHT22;17550;45.486;12.222;2023-05-27T14:33:33;29.90;77.80
30825;DHT22;17550;45.486;12.222;2023-05-27T14:35:59;30.00;77.10
30825;DHT22;17550;45.486;12.222;2023-05-27T14:38:25;29.60;75.10
30825;DHT22;17550;45.486;12.222;2023-05-27T14:40:51;29.20;75.90
30825;DHT22;17550;45.486;12.222;2023-05-27T14:43:16;28.90;76.50
30825;DHT22;17550;45.486;12.222;2023-05-27T14:45:42;29.10;76.30
30825;DHT22;17550;45.486;12.222;2023-05-27T14:48:08;28.70;77.50
30825;DHT22;17550;45.486;12.222;2023-05-27T14:50:33;28.50;80.40
30825;DHT22;17550;45.486;12.222;2023-05-27T14:52:59;28.40;81.70
30825;DHT22;17550;45.486;12.222;2023-05-27T14:55:26;28.70;83.50
30825;DHT22;17550;45.486;12.222;2023-05-27T14:57:51;29.00;81.20
30825;DHT22;17550;45.486;12.222;2023-05-27T15:00:17;28.90;80.90
30825;DHT22;17550;45.486;12.222;2023-05-27T15:02:43;29.00;80.80
30825;DHT22;17550;45.486;12.222;2023-05-27T15:05:09;28.70;78.80
30825;DHT22;17550;45.486;12.222;2023-05-27T15:07:36;28.60;80.60
30825;DHT22;17550;45.486;12.222;2023-05-27T15:10:03;28.60;79.90
30825;DHT22;17550;45.486;12.222;2023-05-27T15:12:42;28.70;80.90
30825;DHT22;17550;45.486;12.222;2023-05-27T15:15:12;28.70;79.90
30825;DHT22;17550;45.486;12.222;2023-05-27T15:17:41;28.70;80.50
30825;DHT22;17550;45.486;12.222;2023-05-27T15:20:10;28.80;81.80
30825;DHT22;17550;45.486;12.222;2023-05-27T15:22:36;28.80;82.40
30825;DHT22;17550;45.486;12.222;2023-05-27T15:25:02;28.80;82.90